sensor_id;sensor_type;location;lat;lon;timestamp;P1;durP1;ratioP1;P2;durP2;ratioP2
32946;SDS011;54465;51.230;22.504;2023-04-24T00:00:29;3.35;;;2.28;;
32946;SDS011;54465;51.230;22.504;2023-04-24T00:05:31;2.80;;;2.42;;
32946;SDS011;54465;51.230;22.504;2023-04-24T00:10:32;4.88;;;1.88;;
32946;SDS011;54465;51.230;22.504;2023-04-24T00:15:33;3.42;;;2.28;;
32946;SDS011;54465;51.230;22.504;2023-04-24T00:20:33;4.00;;;2.60;;
32946;SDS011;54465;51.230;22.504;2023-04-24T00:25:35;4.68;;;2.33;;
32946;SDS011;54465;51.230;22.504;2023-04-24T00:30:35;2.17;;;1.90;;
32946;SDS011;54465;51.230;22.504;2023-04-24T00:35:36;5.03;;;2.25;;
32946;SDS011;54465;51.230;22.504;2023-04-24T00:40:36;4.18;;;2.03;;
32946;SDS011;54465;51.230;22.504;2023-04-24T00:45:37;3.33;;;2.35;;
32946;SDS011;54465;51.230;22.504;2023-04-24T00:50:38;2.70;;;2.17;;
32946;SDS011;54465;51.230;22.504;2023-04-24T00:55:39;2.67;;;2.42;;
32946;SDS011;54465;51.230;22.504;2023-04-24T01:00:39;4.95;;;2.30;;
32946;SDS011;54465;51.230;22.504;2023-04-24T01:05:41;4.40;;;2.38;;
32946;SDS011;54465;51.230;22.504;2023-04-24T01:10:41;4.18;;;2.58;;
32946;SDS011;54465;51.230;22.504;2023-04-24T01:15:45;4.95;;;2.28;;
32946;SDS011;54465;51.230;22.504;2023-04-24T01:20:46;2.78;;;2.10;;
32946;SDS011;54465;51.230;22.504;2023-04-24T01:25:48;3.20;;;2.03;;
32946;SDS011;54465;51.230;22.504;2023-04-24T01:30:49;4.18;;;2.42;;
32946;SDS011;54465;51.230;22.504;2023-04-24T01:35:50;2.92;;;1.92;;
32946;SDS011;54465;51.230;22.504;2023-04-24T01:40:51;3.83;;;2.22;;
32946;SDS011;54465;51.230;22.504;2023-04-24T01:45:51;4.07;;;2.30;;
32946;SDS011;54465;51.230;22.504;2023-04-24T01:50:52;4.20;;;2.38;;
32946;SDS011;54465;51.230;22.504;2023-04-24T01:55:52;2.90;;;2.50;;
32946;SDS011;54465;51.230;22.504;2023-04-24T02:00:55;3.75;;;2.38;;
32946;SDS011;54465;51.230;22.504;2023-04-24T02:05:56;3.17;;;2.58;;
32946;SDS011;54465;51.230;22.504;2023-04-24T02:10:58;3.03;;;2.15;;
32946;SDS011;54465;51.230;22.504;2023-04-24T02:15:58;3.28;;;2.22;;
32946;SDS011;54465;51.230;22.504;2023-04-24T02:20:59;3.08;;;2.63;;
32946;SDS011;54465;51.230;22.504;2023-04-24T02:25:59;4.60;;;2.50;;
32946;SDS011;54465;51.230;22.504;2023-04-24T02:31:00;2.78;;;2.30;;
32946;SDS011;54465;51.230;22.504;2023-04-24T02:36:01;2.83;;;2.25;;
32946;SDS011;54465;51.230;22.504;2023-04-24T02:41:02;4.88;;;2.47;;
32946;SDS011;54465;51.230;22.504;2023-04-24T02:46:06;4.72;;;2.50;;
32946;SDS011;54465;51.230;22.504;2023-04-24T02:51:06;6.00;;;2.97;;
32946;SDS011;54465;51.230;22.504;2023-04-24T02:56:07;5.18;;;2.22;;
32946;SDS011;54465;51.230;22.504;2023-04-24T03:01:07;3.58;;;2.47;;
32946;SDS011;54465;51.230;22.504;2023-04-24T03:06:10;2.88;;;2.25;;
32946;SDS011;54465;51.230;22.504;2023-04-24T03:11:10;4.97;;;3.08;;
32946;SDS011;54465;51.230;22.504;2023-04-24T03:16:11;3.00;;;2.10;;
32946;SDS011;54465;51.230;22.504;2023-04-24T03:21:11;4.38;;;2.90;;
32946;SDS011;54465;51.230;22.504;2023-04-24T03:26:12;4.05;;;3.00;;
32946;SDS011;54465;51.230;22.504;2023-04-24T03:31:23;5.82;;;2.80;;
32946;SDS011;54465;51.230;22.504;2023-04-24T03:36:24;5.20;;;2.53;;
32946;SDS011;54465;51.230;22.504;2023-04-24T03:41:26;4.63;;;2.47;;
32946;SDS011;54465;51.230;22.504;2023-04-24T03:46:37;4.38;;;2.45;;
32946;SDS011;54465;51.230;22.504;2023-04-24T03:51:38;2.63;;;2.42;;
32946;SDS011;54465;51.230;22.504;2023-04-24T03:56:59;5.28;;;2.83;;
32946;SDS011;54465;51.230;22.504;2023-04-24T04:02:01;4.97;;;2.78;;
32946;SDS011;54465;51.230;22.504;2023-04-24T04:07:02;3.20;;;2.70;;
32946;SDS011;54465;51.230;22.504;2023-04-24T04:12:04;3.47;;;2.50;;
32946;SDS011;54465;51.230;22.504;2023-04-24T04:17:07;3.58;;;2.55;;
32946;SDS011;54465;51.230;22.504;2023-04-24T04:22:07;4.15;;;2.83;;
32946;SDS011;54465;51.230;22.504;2023-04-24T04:27:14;5.30;;;3.20;;
32946;SDS011;54465;51.230;22.504;2023-04-24T04:32:26;6.82;;;2.78;;
32946;SDS011;54465;51.230;22.504;2023-04-24T04:37:26;5.35;;;3.20;;
32946;SDS011;54465;51.230;22.504;2023-04-24T04:42:47;6.85;;;3.45;;
32946;SDS011;54465;51.230;22.504;2023-04-24T04:47:49;6.25;;;3.03;;
32946;SDS011;54465;51.230;22.504;2023-04-24T04:52:49;3.53;;;2.70;;
32946;SDS011;54465;51.230;22.504;2023-04-24T04:58:00;3.90;;;2.83;;
32946;SDS011;54465;51.230;22.504;2023-04-24T05:03:01;4.38;;;2.78;;
32946;SDS011;54465;51.230;22.504;2023-04-24T05:08:02;4.57;;;3.05;;
32946;SDS011;54465;51.230;22.504;2023-04-24T05:13:03;3.97;;;2.60;;
32946;SDS011;54465;51.230;22.504;2023-04-24T05:18:05;6.15;;;3.03;;
32946;SDS011;54465;51.230;22.504;2023-04-24T05:23:07;3.97;;;2.90;;
32946;SDS011;54465;51.230;22.504;2023-04-24T05:28:07;4.65;;;2.90;;
32946;SDS011;54465;51.230;22.504;2023-04-24T05:33:08;3.67;;;2.58;;
32946;SDS011;54465;51.230;22.504;2023-04-24T05:38:10;3.63;;;2.70;;
32946;SDS011;54465;51.230;22.504;2023-04-24T05:43:10;3.50;;;2.60;;
32946;SDS011;54465;51.230;22.504;2023-04-24T05:48:11;5.32;;;2.80;;
32946;SDS011;54465;51.230;22.504;2023-04-24T05:53:11;4.63;;;2.53;;
32946;SDS011;54465;51.230;22.504;2023-04-24T05:58:12;3.45;;;2.60;;
32946;SDS011;54465;51.230;22.504;2023-04-24T06:03:13;5.00;;;2.47;;
32946;SDS011;54465;51.230;22.504;2023-04-24T06:08:14;5.28;;;2.47;;
32946;SDS011;54465;51.230;22.504;2023-04-24T06:13:17;2.78;;;2.42;;
32946;SDS011;54465;51.230;22.504;2023-04-24T06:18:32;3.35;;;2.22;;
32946;SDS011;54465;51.230;22.504;2023-04-24T06:23:32;3.28;;;2.47;;
32946;SDS011;54465;51.230;22.504;2023-04-24T06:28:33;3.80;;;2.45;;
32946;SDS011;54465;51.230;22.504;2023-04-24T06:33:33;3.70;;;2.53;;
32946;SDS011;54465;51.230;22.504;2023-04-24T06:38:34;3.08;;;2.22;;
32946;SDS011;54465;51.230;22.504;2023-04-24T06:43:34;3.40;;;2.80;;
32946;SDS011;54465;51.230;22.504;2023-04-24T06:48:35;6.38;;;2.50;;
32946;SDS011;54465;51.230;22.504;2023-04-24T06:53:35;4.85;;;3.10;;
32946;SDS011;54465;51.230;22.504;2023-04-24T06:58:36;7.18;;;2.40;;
32946;SDS011;54465;51.230;22.504;2023-04-24T07:03:36;5.80;;;2.40;;
32946;SDS011;54465;51.230;22.504;2023-04-24T07:08:37;2.83;;;2.53;;
32946;SDS011;54465;51.230;22.504;2023-04-24T07:13:37;4.07;;;2.38;;
32946;SDS011;54465;51.230;22.504;2023-04-24T07:18:41;3.03;;;2.45;;
32946;SDS011;54465;51.230;22.504;2023-04-24T07:23:42;3.10;;;2.30;;
32946;SDS011;54465;51.230;22.504;2023-04-24T07:28:42;7.00;;;2.72;;
32946;SDS011;54465;51.230;22.504;2023-04-24T07:33:43;2.70;;;2.25;;
32946;SDS011;54465;51.230;22.504;2023-04-24T07:38:46;4.55;;;2.45;;
32946;SDS011;54465;51.230;22.504;2023-04-24T07:43:47;3.55;;;2.80;;
32946;SDS011;54465;51.230;22.504;2023-04-24T07:48:47;3.65;;;2.30;;
32946;SDS011;54465;51.230;22.504;2023-04-24T07:53:48;4.85;;;2.58;;
32946;SDS011;54465;51.230;22.504;2023-04-24T07:58:48;5.25;;;2.15;;
32946;SDS011;54465;51.230;22.504;2023-04-24T08:03:50;5.93;;;2.40;;
32946;SDS011;54465;51.230;22.504;2023-04-24T08:08:50;3.60;;;2.70;;
32946;SDS011;54465;51.230;22.504;2023-04-24T08:13:51;3.92;;;2.60;;
32946;SDS011;54465;51.230;22.504;2023-04-24T08:18:52;3.45;;;2.25;;
32946;SDS011;54465;51.230;22.504;2023-04-24T08:23:53;2.65;;;2.03;;
32946;SDS011;54465;51.230;22.504;2023-04-24T08:28:53;3.63;;;2.00;;
32946;SDS011;54465;51.230;22.504;2023-04-24T08:33:54;2.88;;;2.25;;
32946;SDS011;54465;51.230;22.504;2023-04-24T08:38:55;5.38;;;2.75;;
32946;SDS011;54465;51.230;22.504;2023-04-24T08:43:55;3.20;;;2.10;;
32946;SDS011;54465;51.230;22.504;2023-04-24T08:48:58;3.53;;;2.15;;
32946;SDS011;54465;51.230;22.504;2023-04-24T08:53:58;5.72;;;2.17;;
32946;SDS011;54465;51.230;22.504;2023-04-24T08:58:59;3.58;;;2.35;;
32946;SDS011;54465;51.230;22.504;2023-04-24T09:04:01;2.40;;;2.13;;
32946;SDS011;54465;51.230;22.504;2023-04-24T09:09:03;3.88;;;2.70;;
32946;SDS011;54465;51.230;22.504;2023-04-24T09:14:04;3.88;;;2.03;;
32946;SDS011;54465;51.230;22.504;2023-04-24T09:19:04;9.85;;;2.72;;
32946;SDS011;54465;51.230;22.504;2023-04-24T09:24:06;5.47;;;2.33;;
32946;SDS011;54465;51.230;22.504;2023-04-24T09:29:07;3.85;;;2.78;;
32946;SDS011;54465;51.230;22.504;2023-04-24T09:34:08;5.95;;;2.47;;
32946;SDS011;54465;51.230;22.504;2023-04-24T09:39:09;3.53;;;2.17;;
32946;SDS011;54465;51.230;22.504;2023-04-24T09:49:21;7.05;;;2.25;;
32946;SDS011;54465;51.230;22.504;2023-04-24T09:54:23;3.03;;;1.98;;
32946;SDS011;54465;51.230;22.504;2023-04-24T09:59:25;3.65;;;2.25;;
32946;SDS011;54465;51.230;22.504;2023-04-24T10:04:26;2.05;;;1.80;;
32946;SDS011;54465;51.230;22.504;2023-04-24T10:09:28;2.45;;;1.85;;
32946;SDS011;54465;51.230;22.504;2023-04-24T10:14:28;3.60;;;2.08;;
32946;SDS011;54465;51.230;22.504;2023-04-24T10:19:29;2.17;;;1.75;;
32946;SDS011;54465;51.230;22.504;2023-04-24T10:24:30;2.92;;;1.98;;
32946;SDS011;54465;51.230;22.504;2023-04-24T10:29:31;20.45;;;3.90;;
32946;SDS011;54465;51.230;22.504;2023-04-24T10:34:32;5.32;;;1.92;;
32946;SDS011;54465;51.230;22.504;2023-04-24T10:39:32;2.08;;;1.85;;
32946;SDS011;54465;51.230;22.504;2023-04-24T10:44:36;2.45;;;1.95;;
32946;SDS011;54465;51.230;22.504;2023-04-24T10:49:37;2.28;;;2.03;;
32946;SDS011;54465;51.230;22.504;2023-04-24T10:59:40;2.92;;;2.20;;
32946;SDS011;54465;51.230;22.504;2023-04-24T11:04:41;4.82;;;2.55;;
32946;SDS011;54465;51.230;22.504;2023-04-24T11:20:04;3.45;;;2.30;;
32946;SDS011;54465;51.230;22.504;2023-04-24T11:25:09;4.28;;;2.42;;
32946;SDS011;54465;51.230;22.504;2023-04-24T11:30:12;3.47;;;2.30;;
32946;SDS011;54465;51.230;22.504;2023-04-24T11:37:53;4.18;;;2.80;;
32946;SDS011;54465;51.230;22.504;2023-04-24T11:42:54;4.78;;;2.35;;
32946;SDS011;54465;51.230;22.504;2023-04-24T11:47:57;3.33;;;2.60;;
32946;SDS011;54465;51.230;22.504;2023-04-24T11:52:58;4.80;;;2.22;;
32946;SDS011;54465;51.230;22.504;2023-04-24T11:58:00;6.43;;;2.63;;
32946;SDS011;54465;51.230;22.504;2023-04-24T12:03:08;4.43;;;2.60;;
32946;SDS011;54465;51.230;22.504;2023-04-24T12:08:11;3.05;;;2.42;;
32946;SDS011;54465;51.230;22.504;2023-04-24T12:13:12;3.00;;;2.10;;
32946;SDS011;54465;51.230;22.504;2023-04-24T12:18:13;3.03;;;2.42;;
32946;SDS011;54465;51.230;22.504;2023-04-24T12:23:14;5.88;;;2.05;;
32946;SDS011;54465;51.230;22.504;2023-04-24T12:28:14;2.63;;;1.92;;
32946;SDS011;54465;51.230;22.504;2023-04-24T12:33:18;4.70;;;1.90;;
32946;SDS011;54465;51.230;22.504;2023-04-24T12:38:23;2.25;;;1.77;;
32946;SDS011;54465;51.230;22.504;2023-04-24T12:43:25;3.35;;;2.13;;
32946;SDS011;54465;51.230;22.504;2023-04-24T12:48:28;2.72;;;1.92;;
32946;SDS011;54465;51.230;22.504;2023-04-24T12:53:29;3.65;;;2.00;;
32946;SDS011;54465;51.230;22.504;2023-04-24T12:58:31;4.32;;;1.85;;
32946;SDS011;54465;51.230;22.504;2023-04-24T13:03:31;3.38;;;2.38;;
32946;SDS011;54465;51.230;22.504;2023-04-24T13:08:32;2.10;;;1.63;;
32946;SDS011;54465;51.230;22.504;2023-04-24T13:13:32;2.42;;;2.00;;
32946;SDS011;54465;51.230;22.504;2023-04-24T13:18:33;3.50;;;2.00;;
32946;SDS011;54465;51.230;22.504;2023-04-24T13:23:33;3.60;;;2.05;;
32946;SDS011;54465;51.230;22.504;2023-04-24T13:28:34;1.98;;;1.75;;
32946;SDS011;54465;51.230;22.504;2023-04-24T13:33:35;3.35;;;2.08;;
32946;SDS011;54465;51.230;22.504;2023-04-24T13:38:35;2.08;;;1.83;;
32946;SDS011;54465;51.230;22.504;2023-04-24T13:43:36;3.10;;;1.73;;
32946;SDS011;54465;51.230;22.504;2023-04-24T13:48:36;2.08;;;1.75;;
32946;SDS011;54465;51.230;22.504;2023-04-24T13:53:37;3.70;;;1.55;;
32946;SDS011;54465;51.230;22.504;2023-04-24T13:58:38;5.47;;;2.42;;
32946;SDS011;54465;51.230;22.504;2023-04-24T14:03:39;5.70;;;2.45;;
32946;SDS011;54465;51.230;22.504;2023-04-24T14:08:40;2.70;;;2.13;;
32946;SDS011;54465;51.230;22.504;2023-04-24T14:13:41;3.83;;;2.70;;
32946;SDS011;54465;51.230;22.504;2023-04-24T14:18:41;3.17;;;2.30;;
32946;SDS011;54465;51.230;22.504;2023-04-24T14:23:42;2.65;;;2.20;;
32946;SDS011;54465;51.230;22.504;2023-04-24T14:28:42;4.20;;;2.40;;
32946;SDS011;54465;51.230;22.504;2023-04-24T14:33:43;2.50;;;2.10;;
32946;SDS011;54465;51.230;22.504;2023-04-24T14:38:43;2.10;;;1.98;;
32946;SDS011;54465;51.230;22.504;2023-04-24T14:43:44;2.90;;;2.55;;
32946;SDS011;54465;51.230;22.504;2023-04-24T14:48:45;3.33;;;2.35;;
32946;SDS011;54465;51.230;22.504;2023-04-24T14:53:45;2.88;;;1.88;;
32946;SDS011;54465;51.230;22.504;2023-04-24T14:58:47;5.30;;;2.58;;
32946;SDS011;54465;51.230;22.504;2023-04-24T15:03:48;2.25;;;1.90;;
32946;SDS011;54465;51.230;22.504;2023-04-24T15:08:48;4.55;;;2.60;;
32946;SDS011;54465;51.230;22.504;2023-04-24T15:13:49;3.90;;;2.15;;
32946;SDS011;54465;51.230;22.504;2023-04-24T15:18:49;5.60;;;2.40;;
32946;SDS011;54465;51.230;22.504;2023-04-24T15:23:50;5.20;;;2.60;;
32946;SDS011;54465;51.230;22.504;2023-04-24T15:28:51;3.92;;;2.58;;
32946;SDS011;54465;51.230;22.504;2023-04-24T15:33:52;3.28;;;2.35;;
32946;SDS011;54465;51.230;22.504;2023-04-24T15:38:52;4.35;;;1.98;;
32946;SDS011;54465;51.230;22.504;2023-04-24T15:43:53;3.03;;;2.40;;
32946;SDS011;54465;51.230;22.504;2023-04-24T15:48:53;2.88;;;2.25;;
32946;SDS011;54465;51.230;22.504;2023-04-24T15:53:54;6.80;;;2.08;;
32946;SDS011;54465;51.230;22.504;2023-04-24T15:58:54;8.32;;;2.35;;
32946;SDS011;54465;51.230;22.504;2023-04-24T16:03:55;2.42;;;1.83;;
32946;SDS011;54465;51.230;22.504;2023-04-24T16:08:56;3.47;;;2.00;;
32946;SDS011;54465;51.230;22.504;2023-04-24T16:13:56;2.58;;;1.83;;
32946;SDS011;54465;51.230;22.504;2023-04-24T16:18:57;2.22;;;2.03;;
32946;SDS011;54465;51.230;22.504;2023-04-24T16:23:57;2.33;;;1.88;;
32946;SDS011;54465;51.230;22.504;2023-04-24T16:28:58;3.72;;;1.92;;
32946;SDS011;54465;51.230;22.504;2023-04-24T16:33:58;3.80;;;2.08;;
32946;SDS011;54465;51.230;22.504;2023-04-24T16:38:59;4.15;;;1.75;;
32946;SDS011;54465;51.230;22.504;2023-04-24T16:44:00;3.88;;;2.30;;
32946;SDS011;54465;51.230;22.504;2023-04-24T16:49:00;3.67;;;2.40;;
32946;SDS011;54465;51.230;22.504;2023-04-24T16:54:01;6.68;;;2.30;;
32946;SDS011;54465;51.230;22.504;2023-04-24T16:59:01;5.03;;;2.40;;
32946;SDS011;54465;51.230;22.504;2023-04-24T17:04:02;5.93;;;2.50;;
32946;SDS011;54465;51.230;22.504;2023-04-24T17:09:02;3.92;;;2.25;;
32946;SDS011;54465;51.230;22.504;2023-04-24T17:14:03;7.97;;;2.40;;
32946;SDS011;54465;51.230;22.504;2023-04-24T17:19:05;5.05;;;2.13;;
32946;SDS011;54465;51.230;22.504;2023-04-24T17:24:06;4.45;;;2.67;;
32946;SDS011;54465;51.230;22.504;2023-04-24T17:29:06;5.50;;;3.05;;
32946;SDS011;54465;51.230;22.504;2023-04-24T17:34:07;5.53;;;2.80;;
32946;SDS011;54465;51.230;22.504;2023-04-24T17:39:09;4.50;;;2.75;;
32946;SDS011;54465;51.230;22.504;2023-04-24T17:44:09;5.90;;;2.95;;
32946;SDS011;54465;51.230;22.504;2023-04-24T17:49:10;6.38;;;3.15;;
32946;SDS011;54465;51.230;22.504;2023-04-24T17:54:10;6.18;;;3.58;;
32946;SDS011;54465;51.230;22.504;2023-04-24T17:59:11;8.00;;;3.90;;
32946;SDS011;54465;51.230;22.504;2023-04-24T18:04:11;6.57;;;3.97;;
32946;SDS011;54465;51.230;22.504;2023-04-24T18:09:12;5.10;;;3.70;;
32946;SDS011;54465;51.230;22.504;2023-04-24T18:14:14;9.10;;;4.50;;
32946;SDS011;54465;51.230;22.504;2023-04-24T18:19:15;6.35;;;4.10;;
32946;SDS011;54465;51.230;22.504;2023-04-24T18:24:16;6.82;;;4.57;;
32946;SDS011;54465;51.230;22.504;2023-04-24T18:29:16;6.45;;;4.90;;
32946;SDS011;54465;51.230;22.504;2023-04-24T18:34:17;7.10;;;4.85;;
32946;SDS011;54465;51.230;22.504;2023-04-24T18:39:17;6.40;;;4.75;;
32946;SDS011;54465;51.230;22.504;2023-04-24T18:44:18;6.70;;;4.55;;
32946;SDS011;54465;51.230;22.504;2023-04-24T18:49:19;8.20;;;4.25;;
32946;SDS011;54465;51.230;22.504;2023-04-24T18:54:19;7.43;;;4.05;;
32946;SDS011;54465;51.230;22.504;2023-04-24T18:59:20;9.82;;;4.28;;
32946;SDS011;54465;51.230;22.504;2023-04-24T19:04:20;9.05;;;4.07;;
32946;SDS011;54465;51.230;22.504;2023-04-24T19:09:21;6.00;;;3.70;;
32946;SDS011;54465;51.230;22.504;2023-04-24T19:14:21;6.80;;;4.80;;
32946;SDS011;54465;51.230;22.504;2023-04-24T19:19:22;8.43;;;5.57;;
32946;SDS011;54465;51.230;22.504;2023-04-24T19:24:25;9.75;;;5.72;;
32946;SDS011;54465;51.230;22.504;2023-04-24T19:29:28;7.00;;;4.55;;
32946;SDS011;54465;51.230;22.504;2023-04-24T19:34:28;7.95;;;4.50;;
32946;SDS011;54465;51.230;22.504;2023-04-24T19:39:31;6.07;;;4.60;;
32946;SDS011;54465;51.230;22.504;2023-04-24T19:44:31;6.35;;;4.07;;
32946;SDS011;54465;51.230;22.504;2023-04-24T19:49:32;13.73;;;5.85;;
32946;SDS011;54465;51.230;22.504;2023-04-24T19:54:32;7.68;;;5.00;;
32946;SDS011;54465;51.230;22.504;2023-04-24T19:59:33;7.82;;;5.03;;
32946;SDS011;54465;51.230;22.504;2023-04-24T20:04:33;9.27;;;5.63;;
32946;SDS011;54465;51.230;22.504;2023-04-24T20:09:34;7.88;;;5.32;;
32946;SDS011;54465;51.230;22.504;2023-04-24T20:14:34;8.30;;;4.28;;
32946;SDS011;54465;51.230;22.504;2023-04-24T20:19:35;7.57;;;5.07;;
32946;SDS011;54465;51.230;22.504;2023-04-24T20:24:36;7.75;;;5.35;;
32946;SDS011;54465;51.230;22.504;2023-04-24T20:29:36;8.95;;;5.13;;
32946;SDS011;54465;51.230;22.504;2023-04-24T20:34:37;5.63;;;4.72;;
32946;SDS011;54465;51.230;22.504;2023-04-24T20:39:37;5.55;;;3.92;;
32946;SDS011;54465;51.230;22.504;2023-04-24T20:44:38;7.28;;;3.83;;
32946;SDS011;54465;51.230;22.504;2023-04-24T20:49:38;4.22;;;3.60;;
32946;SDS011;54465;51.230;22.504;2023-04-24T20:54:39;5.38;;;3.30;;
32946;SDS011;54465;51.230;22.504;2023-04-24T20:59:41;4.22;;;3.50;;
32946;SDS011;54465;51.230;22.504;2023-04-24T21:04:41;3.40;;;3.10;;
32946;SDS011;54465;51.230;22.504;2023-04-24T21:09:41;3.95;;;3.42;;
32946;SDS011;54465;51.230;22.504;2023-04-24T21:14:42;4.63;;;3.47;;
32946;SDS011;54465;51.230;22.504;2023-04-24T21:19:42;4.65;;;2.92;;
32946;SDS011;54465;51.230;22.504;2023-04-24T21:24:43;3.67;;;3.00;;
32946;SDS011;54465;51.230;22.504;2023-04-24T21:29:43;4.10;;;3.20;;
32946;SDS011;54465;51.230;22.504;2023-04-24T21:34:44;3.83;;;3.20;;
32946;SDS011;54465;51.230;22.504;2023-04-24T21:39:44;3.63;;;3.28;;
32946;SDS011;54465;51.230;22.504;2023-04-24T21:44:45;4.88;;;3.78;;
32946;SDS011;54465;51.230;22.504;2023-04-24T21:49:45;6.22;;;3.83;;
32946;SDS011;54465;51.230;22.504;2023-04-24T21:54:46;8.43;;;4.20;;
32946;SDS011;54465;51.230;22.504;2023-04-24T21:59:47;4.50;;;4.05;;
32946;SDS011;54465;51.230;22.504;2023-04-24T22:04:47;4.28;;;3.65;;
32946;SDS011;54465;51.230;22.504;2023-04-24T22:09:49;4.70;;;4.22;;
32946;SDS011;54465;51.230;22.504;2023-04-24T22:14:49;6.40;;;4.00;;
32946;SDS011;54465;51.230;22.504;2023-04-24T22:19:50;5.68;;;3.95;;
32946;SDS011;54465;51.230;22.504;2023-04-24T22:24:50;5.57;;;3.92;;
32946;SDS011;54465;51.230;22.504;2023-04-24T22:29:51;6.22;;;3.88;;
32946;SDS011;54465;51.230;22.504;2023-04-24T22:34:52;4.97;;;4.22;;
32946;SDS011;54465;51.230;22.504;2023-04-24T22:39:53;5.10;;;4.20;;
32946;SDS011;54465;51.230;22.504;2023-04-24T22:44:53;7.78;;;4.70;;
32946;SDS011;54465;51.230;22.504;2023-04-24T22:49:54;5.95;;;4.50;;
32946;SDS011;54465;51.230;22.504;2023-04-24T22:54:55;6.10;;;4.95;;
32946;SDS011;54465;51.230;22.504;2023-04-24T22:59:56;5.90;;;5.30;;
32946;SDS011;54465;51.230;22.504;2023-04-24T23:04:56;6.68;;;5.10;;
32946;SDS011;54465;51.230;22.504;2023-04-24T23:09:57;5.55;;;4.95;;
32946;SDS011;54465;51.230;22.504;2023-04-24T23:14:58;7.60;;;5.00;;
32946;SDS011;54465;51.230;22.504;2023-04-24T23:19:59;5.22;;;4.72;;
32946;SDS011;54465;51.230;22.504;2023-04-24T23:24:59;6.30;;;4.57;;
32946;SDS011;54465;51.230;22.504;2023-04-24T23:30:00;5.32;;;4.38;;
32946;SDS011;54465;51.230;22.504;2023-04-24T23:35:00;9.25;;;5.30;;
32946;SDS011;54465;51.230;22.504;2023-04-24T23:40:01;6.63;;;5.35;;
32946;SDS011;54465;51.230;22.504;2023-04-24T23:45:02;5.78;;;5.07;;
32946;SDS011;54465;51.230;22.504;2023-04-24T23:50:03;6.40;;;4.85;;
32946;SDS011;54465;51.230;22.504;2023-04-24T23:55:03;6.85;;;5.60;;
